sensor_id;sensor_type;location;lat;lon;timestamp;temperature;humidity
16040;DHT22;8124;48.634;8.120;2023-08-08T00:03:35;18.90;99.90
16040;DHT22;8124;48.634;8.120;2023-08-08T00:08:38;18.90;99.90
16040;DHT22;8124;48.634;8.120;2023-08-08T00:13:43;18.90;99.90
16040;DHT22;8124;48.634;8.120;2023-08-08T00:18:46;18.80;99.90
16040;DHT22;8124;48.634;8.120;2023-08-08T00:23:51;18.80;99.90
16040;DHT22;8124;48.634;8.120;2023-08-08T00:29:13;18.80;99.90
16040;DHT22;8124;48.634;8.120;2023-08-08T00:34:27;18.80;99.90
16040;DHT22;8124;48.634;8.120;2023-08-08T00:39:41;18.80;99.90
16040;DHT22;8124;48.634;8.120;2023-08-08T00:44:49;18.70;99.90
16040;DHT22;8124;48.634;8.120;2023-08-08T00:49:52;18.70;99.90
16040;DHT22;8124;48.634;8.120;2023-08-08T00:54:55;18.70;99.90
16040;DHT22;8124;48.634;8.120;2023-08-08T01:00:00;18.70;99.90
16040;DHT22;8124;48.634;8.120;2023-08-08T01:05:04;18.60;99.90
16040;DHT22;8124;48.634;8.120;2023-08-08T01:10:10;18.50;99.90
16040;DHT22;8124;48.634;8.120;2023-08-08T01:15:16;18.50;99.90
16040;DHT22;8124;48.634;8.120;2023-08-08T01:20:20;18.60;99.90
16040;DHT22;8124;48.634;8.120;2023-08-08T01:25:29;18.50;99.90
16040;DHT22;8124;48.634;8.120;2023-08-08T01:30:32;18.60;99.90
16040;DHT22;8124;48.634;8.120;2023-08-08T01:35:38;18.50;99.90
16040;DHT22;8124;48.634;8.120;2023-08-08T01:40:45;18.50;99.90
16040;DHT22;8124;48.634;8.120;2023-08-08T01:45:49;18.60;99.90
16040;DHT22;8124;48.634;8.120;2023-08-08T01:50:53;18.50;99.90
16040;DHT22;8124;48.634;8.120;2023-08-08T01:55:57;18.60;99.90
16040;DHT22;8124;48.634;8.120;2023-08-08T02:01:00;18.60;99.90
16040;DHT22;8124;48.634;8.120;2023-08-08T02:06:03;18.40;99.90
16040;DHT22;8124;48.634;8.120;2023-08-08T02:11:08;18.50;99.90
16040;DHT22;8124;48.634;8.120;2023-08-08T02:16:11;18.50;99.90
16040;DHT22;8124;48.634;8.120;2023-08-08T02:21:14;18.60;99.90
16040;DHT22;8124;48.634;8.120;2023-08-08T02:26:19;18.50;99.90
16040;DHT22;8124;48.634;8.120;2023-08-08T02:31:23;18.40;99.90
16040;DHT22;8124;48.634;8.120;2023-08-08T02:36:26;18.50;99.90
16040;DHT22;8124;48.634;8.120;2023-08-08T02:41:30;18.50;99.90
16040;DHT22;8124;48.634;8.120;2023-08-08T02:46:33;18.40;99.90
16040;DHT22;8124;48.634;8.120;2023-08-08T02:51:39;18.50;99.90
16040;DHT22;8124;48.634;8.120;2023-08-08T02:56:44;18.50;99.90
16040;DHT22;8124;48.634;8.120;2023-08-08T03:01:47;18.50;99.90
16040;DHT22;8124;48.634;8.120;2023-08-08T03:06:52;18.50;99.90
16040;DHT22;8124;48.634;8.120;2023-08-08T03:11:57;18.40;99.90
16040;DHT22;8124;48.634;8.120;2023-08-08T03:17:01;18.40;99.90
16040;DHT22;8124;48.634;8.120;2023-08-08T03:22:05;18.40;99.90
16040;DHT22;8124;48.634;8.120;2023-08-08T03:27:13;18.40;99.90
16040;DHT22;8124;48.634;8.120;2023-08-08T03:32:17;18.30;99.90
16040;DHT22;8124;48.634;8.120;2023-08-08T03:37:21;18.30;99.90
16040;DHT22;8124;48.634;8.120;2023-08-08T03:42:25;18.30;99.90
16040;DHT22;8124;48.634;8.120;2023-08-08T03:47:28;18.40;99.90
16040;DHT22;8124;48.634;8.120;2023-08-08T03:52:31;18.40;99.90
16040;DHT22;8124;48.634;8.120;2023-08-08T03:57:38;18.40;99.90
16040;DHT22;8124;48.634;8.120;2023-08-08T04:02:41;18.40;99.90
16040;DHT22;8124;48.634;8.120;2023-08-08T04:07:45;18.30;99.90
16040;DHT22;8124;48.634;8.120;2023-08-08T04:12:49;18.30;99.90
16040;DHT22;8124;48.634;8.120;2023-08-08T04:17:52;18.30;99.90
16040;DHT22;8124;48.634;8.120;2023-08-08T04:22:55;18.20;99.90
16040;DHT22;8124;48.634;8.120;2023-08-08T04:27:59;18.20;99.90
16040;DHT22;8124;48.634;8.120;2023-08-08T04:33:02;18.20;99.90
16040;DHT22;8124;48.634;8.120;2023-08-08T04:38:05;18.20;99.90
16040;DHT22;8124;48.634;8.120;2023-08-08T04:43:10;18.10;99.90
16040;DHT22;8124;48.634;8.120;2023-08-08T04:48:13;18.00;99.90
16040;DHT22;8124;48.634;8.120;2023-08-08T04:53:16;18.10;99.90
16040;DHT22;8124;48.634;8.120;2023-08-08T04:58:20;18.10;99.90
16040;DHT22;8124;48.634;8.120;2023-08-08T05:03:23;18.10;99.90
16040;DHT22;8124;48.634;8.120;2023-08-08T05:08:26;18.10;99.90
16040;DHT22;8124;48.634;8.120;2023-08-08T05:13:31;18.00;99.90
16040;DHT22;8124;48.634;8.120;2023-08-08T05:18:34;17.80;99.90
16040;DHT22;8124;48.634;8.120;2023-08-08T05:23:37;18.00;99.90
16040;DHT22;8124;48.634;8.120;2023-08-08T05:28:42;18.20;99.90
16040;DHT22;8124;48.634;8.120;2023-08-08T05:33:45;18.20;99.90
16040;DHT22;8124;48.634;8.120;2023-08-08T05:38:48;18.20;99.90
16040;DHT22;8124;48.634;8.120;2023-08-08T05:43:53;18.20;99.90
16040;DHT22;8124;48.634;8.120;2023-08-08T05:48:56;18.20;99.90
16040;DHT22;8124;48.634;8.120;2023-08-08T05:53:59;18.40;99.90
16040;DHT22;8124;48.634;8.120;2023-08-08T05:59:05;18.30;99.90
16040;DHT22;8124;48.634;8.120;2023-08-08T06:04:08;18.30;99.90
16040;DHT22;8124;48.634;8.120;2023-08-08T06:09:11;18.20;99.90
16040;DHT22;8124;48.634;8.120;2023-08-08T06:14:16;18.20;99.90
16040;DHT22;8124;48.634;8.120;2023-08-08T06:19:19;18.20;99.90
16040;DHT22;8124;48.634;8.120;2023-08-08T06:24:22;18.20;99.90
16040;DHT22;8124;48.634;8.120;2023-08-08T06:29:27;18.10;99.90
16040;DHT22;8124;48.634;8.120;2023-08-08T06:34:30;18.20;99.90
16040;DHT22;8124;48.634;8.120;2023-08-08T06:39:33;18.60;99.90
16040;DHT22;8124;48.634;8.120;2023-08-08T06:44:44;18.40;99.90
16040;DHT22;8124;48.634;8.120;2023-08-08T06:50:07;18.50;99.90
16040;DHT22;8124;48.634;8.120;2023-08-08T06:55:11;18.40;99.90
16040;DHT22;8124;48.634;8.120;2023-08-08T07:00:15;18.80;99.90
16040;DHT22;8124;48.634;8.120;2023-08-08T07:05:19;18.90;99.90
16040;DHT22;8124;48.634;8.120;2023-08-08T07:10:22;19.10;99.90
16040;DHT22;8124;48.634;8.120;2023-08-08T07:15:26;19.20;99.90
16040;DHT22;8124;48.634;8.120;2023-08-08T07:20:29;19.50;99.90
16040;DHT22;8124;48.634;8.120;2023-08-08T07:25:32;19.70;99.90
16040;DHT22;8124;48.634;8.120;2023-08-08T07:30:36;19.80;99.90
16040;DHT22;8124;48.634;8.120;2023-08-08T07:35:40;20.00;99.90
16040;DHT22;8124;48.634;8.120;2023-08-08T07:40:43;20.00;99.90
16040;DHT22;8124;48.634;8.120;2023-08-08T07:45:49;20.10;99.90
16040;DHT22;8124;48.634;8.120;2023-08-08T07:50:52;20.20;99.90
16040;DHT22;8124;48.634;8.120;2023-08-08T07:55:55;20.60;99.90
16040;DHT22;8124;48.634;8.120;2023-08-08T08:00:59;20.50;99.90
16040;DHT22;8124;48.634;8.120;2023-08-08T08:06:03;20.90;99.90
16040;DHT22;8124;48.634;8.120;2023-08-08T08:11:06;21.10;99.90
16040;DHT22;8124;48.634;8.120;2023-08-08T08:16:10;21.10;99.90
16040;DHT22;8124;48.634;8.120;2023-08-08T08:21:13;21.20;99.90
16040;DHT22;8124;48.634;8.120;2023-08-08T08:26:19;21.20;99.90
16040;DHT22;8124;48.634;8.120;2023-08-08T08:31:23;21.40;99.90
16040;DHT22;8124;48.634;8.120;2023-08-08T08:36:26;21.40;99.90
16040;DHT22;8124;48.634;8.120;2023-08-08T08:41:31;21.50;99.90
16040;DHT22;8124;48.634;8.120;2023-08-08T08:46:39;21.40;99.90
16040;DHT22;8124;48.634;8.120;2023-08-08T08:51:42;21.40;99.90
16040;DHT22;8124;48.634;8.120;2023-08-08T08:56:45;21.60;99.90
16040;DHT22;8124;48.634;8.120;2023-08-08T09:01:50;21.70;99.90
16040;DHT22;8124;48.634;8.120;2023-08-08T09:06:54;21.80;99.90
16040;DHT22;8124;48.634;8.120;2023-08-08T09:11:57;22.10;99.90
16040;DHT22;8124;48.634;8.120;2023-08-08T09:17:02;22.00;99.90
16040;DHT22;8124;48.634;8.120;2023-08-08T09:22:05;22.20;99.90
16040;DHT22;8124;48.634;8.120;2023-08-08T09:27:09;22.10;99.90
16040;DHT22;8124;48.634;8.120;2023-08-08T09:32:13;22.20;99.90
16040;DHT22;8124;48.634;8.120;2023-08-08T09:37:17;22.20;99.90
16040;DHT22;8124;48.634;8.120;2023-08-08T09:42:21;22.30;99.90
16040;DHT22;8124;48.634;8.120;2023-08-08T09:47:26;22.40;99.90
16040;DHT22;8124;48.634;8.120;2023-08-08T09:52:33;22.50;99.90
16040;DHT22;8124;48.634;8.120;2023-08-08T09:57:38;22.60;99.90
16040;DHT22;8124;48.634;8.120;2023-08-08T10:02:44;22.70;99.90
16040;DHT22;8124;48.634;8.120;2023-08-08T10:07:48;22.80;99.90
16040;DHT22;8124;48.634;8.120;2023-08-08T10:12:52;22.90;99.90
16040;DHT22;8124;48.634;8.120;2023-08-08T10:17:57;23.00;99.90
16040;DHT22;8124;48.634;8.120;2023-08-08T10:23:02;23.00;99.90
16040;DHT22;8124;48.634;8.120;2023-08-08T10:28:08;22.90;99.90
16040;DHT22;8124;48.634;8.120;2023-08-08T10:33:40;23.30;99.90
16040;DHT22;8124;48.634;8.120;2023-08-08T10:38:44;23.40;99.90
16040;DHT22;8124;48.634;8.120;2023-08-08T10:43:50;23.40;99.90
16040;DHT22;8124;48.634;8.120;2023-08-08T10:48:56;23.20;99.90
16040;DHT22;8124;48.634;8.120;2023-08-08T10:54:04;23.00;99.90
16040;DHT22;8124;48.634;8.120;2023-08-08T10:59:14;22.70;99.90
16040;DHT22;8124;48.634;8.120;2023-08-08T11:04:21;23.00;99.90
16040;DHT22;8124;48.634;8.120;2023-08-08T11:09:25;23.30;99.90
16040;DHT22;8124;48.634;8.120;2023-08-08T11:14:28;23.60;99.90
16040;DHT22;8124;48.634;8.120;2023-08-08T11:19:38;23.40;99.90
16040;DHT22;8124;48.634;8.120;2023-08-08T11:24:42;23.30;99.90
16040;DHT22;8124;48.634;8.120;2023-08-08T11:29:49;22.90;99.90
16040;DHT22;8124;48.634;8.120;2023-08-08T11:34:54;22.90;99.40
16040;DHT22;8124;48.634;8.120;2023-08-08T11:39:57;23.10;99.90
16040;DHT22;8124;48.634;8.120;2023-08-08T11:45:02;23.10;99.90
16040;DHT22;8124;48.634;8.120;2023-08-08T11:50:09;23.00;99.90
16040;DHT22;8124;48.634;8.120;2023-08-08T11:55:13;23.10;99.90
16040;DHT22;8124;48.634;8.120;2023-08-08T12:00:16;23.10;99.20
16040;DHT22;8124;48.634;8.120;2023-08-08T12:05:21;22.80;97.60
16040;DHT22;8124;48.634;8.120;2023-08-08T12:10:24;22.90;96.90
16040;DHT22;8124;48.634;8.120;2023-08-08T12:15:31;23.10;95.90
16040;DHT22;8124;48.634;8.120;2023-08-08T12:20:37;23.00;94.50
16040;DHT22;8124;48.634;8.120;2023-08-08T12:25:42;23.10;93.90
16040;DHT22;8124;48.634;8.120;2023-08-08T12:30:45;23.20;93.20
16040;DHT22;8124;48.634;8.120;2023-08-08T12:35:49;23.00;92.00
16040;DHT22;8124;48.634;8.120;2023-08-08T12:40:52;23.10;92.00
16040;DHT22;8124;48.634;8.120;2023-08-08T12:45:55;23.00;91.80
16040;DHT22;8124;48.634;8.120;2023-08-08T12:51:00;23.00;91.80
16040;DHT22;8124;48.634;8.120;2023-08-08T12:56:03;23.00;91.80
16040;DHT22;8124;48.634;8.120;2023-08-08T13:01:06;23.10;93.30
16040;DHT22;8124;48.634;8.120;2023-08-08T13:06:11;23.00;94.40
16040;DHT22;8124;48.634;8.120;2023-08-08T13:11:15;23.10;95.80
16040;DHT22;8124;48.634;8.120;2023-08-08T13:16:18;23.30;98.70
16040;DHT22;8124;48.634;8.120;2023-08-08T13:21:22;23.40;99.90
16040;DHT22;8124;48.634;8.120;2023-08-08T13:26:25;23.50;99.90
16040;DHT22;8124;48.634;8.120;2023-08-08T13:31:28;23.50;99.90
16040;DHT22;8124;48.634;8.120;2023-08-08T13:36:32;23.60;99.90
16040;DHT22;8124;48.634;8.120;2023-08-08T13:41:35;23.60;99.90
16040;DHT22;8124;48.634;8.120;2023-08-08T13:46:38;23.50;99.50
16040;DHT22;8124;48.634;8.120;2023-08-08T13:51:43;23.50;99.50
16040;DHT22;8124;48.634;8.120;2023-08-08T13:56:49;23.80;99.90
16040;DHT22;8124;48.634;8.120;2023-08-08T14:01:52;23.60;98.10
16040;DHT22;8124;48.634;8.120;2023-08-08T14:06:56;23.70;96.90
16040;DHT22;8124;48.634;8.120;2023-08-08T14:11:59;23.40;95.40
16040;DHT22;8124;48.634;8.120;2023-08-08T14:17:03;23.50;94.90
16040;DHT22;8124;48.634;8.120;2023-08-08T14:22:07;23.40;95.00
16040;DHT22;8124;48.634;8.120;2023-08-08T14:27:10;23.30;95.00
16040;DHT22;8124;48.634;8.120;2023-08-08T14:32:13;23.30;95.90
16040;DHT22;8124;48.634;8.120;2023-08-08T14:37:17;23.40;98.00
16040;DHT22;8124;48.634;8.120;2023-08-08T14:42:20;23.10;98.10
16040;DHT22;8124;48.634;8.120;2023-08-08T14:47:23;23.20;97.40
16040;DHT22;8124;48.634;8.120;2023-08-08T14:52:27;23.40;97.30
16040;DHT22;8124;48.634;8.120;2023-08-08T14:57:30;23.60;98.10
16040;DHT22;8124;48.634;8.120;2023-08-08T15:02:34;23.60;97.80
16040;DHT22;8124;48.634;8.120;2023-08-08T15:07:38;23.60;97.50
16040;DHT22;8124;48.634;8.120;2023-08-08T15:12:41;23.60;97.10
16040;DHT22;8124;48.634;8.120;2023-08-08T15:17:44;23.80;96.90
16040;DHT22;8124;48.634;8.120;2023-08-08T15:22:49;23.90;96.70
16040;DHT22;8124;48.634;8.120;2023-08-08T15:27:51;24.10;96.10
16040;DHT22;8124;48.634;8.120;2023-08-08T15:32:54;24.20;96.00
16040;DHT22;8124;48.634;8.120;2023-08-08T15:37:59;24.20;95.60
16040;DHT22;8124;48.634;8.120;2023-08-08T15:43:02;24.40;95.60
16040;DHT22;8124;48.634;8.120;2023-08-08T15:48:05;24.40;95.00
16040;DHT22;8124;48.634;8.120;2023-08-08T15:53:10;24.20;93.60
16040;DHT22;8124;48.634;8.120;2023-08-08T15:58:16;24.30;92.90
16040;DHT22;8124;48.634;8.120;2023-08-08T16:03:20;24.60;92.70
16040;DHT22;8124;48.634;8.120;2023-08-08T16:08:26;24.50;92.30
16040;DHT22;8124;48.634;8.120;2023-08-08T16:13:29;24.60;92.00
16040;DHT22;8124;48.634;8.120;2023-08-08T16:18:33;24.50;91.40
16040;DHT22;8124;48.634;8.120;2023-08-08T16:23:38;24.40;90.70
16040;DHT22;8124;48.634;8.120;2023-08-08T16:28:40;24.70;90.70
16040;DHT22;8124;48.634;8.120;2023-08-08T16:33:44;24.50;90.00
16040;DHT22;8124;48.634;8.120;2023-08-08T16:38:48;24.40;90.00
16040;DHT22;8124;48.634;8.120;2023-08-08T16:44:00;24.60;90.50
16040;DHT22;8124;48.634;8.120;2023-08-08T16:49:03;24.70;90.90
16040;DHT22;8124;48.634;8.120;2023-08-08T16:54:07;24.80;91.00
16040;DHT22;8124;48.634;8.120;2023-08-08T16:59:10;24.80;90.70
16040;DHT22;8124;48.634;8.120;2023-08-08T17:04:13;24.70;90.30
16040;DHT22;8124;48.634;8.120;2023-08-08T17:09:18;24.60;89.70
16040;DHT22;8124;48.634;8.120;2023-08-08T17:14:21;24.70;90.50
16040;DHT22;8124;48.634;8.120;2023-08-08T17:19:24;24.80;92.00
16040;DHT22;8124;48.634;8.120;2023-08-08T17:24:28;24.80;93.80
16040;DHT22;8124;48.634;8.120;2023-08-08T17:29:38;24.80;95.50
16040;DHT22;8124;48.634;8.120;2023-08-08T17:34:41;24.70;96.90
16040;DHT22;8124;48.634;8.120;2023-08-08T17:39:45;24.50;97.50
16040;DHT22;8124;48.634;8.120;2023-08-08T17:44:48;24.30;98.00
16040;DHT22;8124;48.634;8.120;2023-08-08T17:49:51;24.40;99.30
16040;DHT22;8124;48.634;8.120;2023-08-08T17:54:55;24.30;99.90
16040;DHT22;8124;48.634;8.120;2023-08-08T17:59:58;24.30;99.90
16040;DHT22;8124;48.634;8.120;2023-08-08T18:05:01;24.30;99.90
16040;DHT22;8124;48.634;8.120;2023-08-08T18:10:07;24.30;99.90
16040;DHT22;8124;48.634;8.120;2023-08-08T18:15:10;24.20;99.90
16040;DHT22;8124;48.634;8.120;2023-08-08T18:20:13;24.00;99.90
16040;DHT22;8124;48.634;8.120;2023-08-08T18:25:17;23.90;99.90
16040;DHT22;8124;48.634;8.120;2023-08-08T18:30:20;23.90;99.90
16040;DHT22;8124;48.634;8.120;2023-08-08T18:35:23;23.90;99.90
16040;DHT22;8124;48.634;8.120;2023-08-08T18:40:28;23.70;99.90
16040;DHT22;8124;48.634;8.120;2023-08-08T18:45:30;23.70;99.90
16040;DHT22;8124;48.634;8.120;2023-08-08T18:50:33;23.60;99.90
16040;DHT22;8124;48.634;8.120;2023-08-08T18:55:38;23.60;99.90
16040;DHT22;8124;48.634;8.120;2023-08-08T19:00:41;23.60;99.90
16040;DHT22;8124;48.634;8.120;2023-08-08T19:05:44;23.40;99.90
16040;DHT22;8124;48.634;8.120;2023-08-08T19:10:48;23.20;99.90
16040;DHT22;8124;48.634;8.120;2023-08-08T19:15:51;23.20;99.90
16040;DHT22;8124;48.634;8.120;2023-08-08T19:20:54;23.20;99.90
16040;DHT22;8124;48.634;8.120;2023-08-08T19:25:59;23.20;99.90
16040;DHT22;8124;48.634;8.120;2023-08-08T19:31:03;23.10;99.90
16040;DHT22;8124;48.634;8.120;2023-08-08T19:36:06;23.10;99.90
16040;DHT22;8124;48.634;8.120;2023-08-08T19:41:12;23.00;99.90
16040;DHT22;8124;48.634;8.120;2023-08-08T19:46:15;22.90;99.90
16040;DHT22;8124;48.634;8.120;2023-08-08T19:51:18;23.00;99.90
16040;DHT22;8124;48.634;8.120;2023-08-08T19:56:22;22.90;99.90
16040;DHT22;8124;48.634;8.120;2023-08-08T20:01:25;22.90;99.90
16040;DHT22;8124;48.634;8.120;2023-08-08T20:06:29;22.70;99.90
16040;DHT22;8124;48.634;8.120;2023-08-08T20:11:33;22.70;99.90
16040;DHT22;8124;48.634;8.120;2023-08-08T20:16:38;22.60;99.90
16040;DHT22;8124;48.634;8.120;2023-08-08T20:21:41;22.50;99.90
16040;DHT22;8124;48.634;8.120;2023-08-08T20:26:47;22.50;99.90
16040;DHT22;8124;48.634;8.120;2023-08-08T20:31:50;22.50;99.90
16040;DHT22;8124;48.634;8.120;2023-08-08T20:36:53;22.40;99.90
16040;DHT22;8124;48.634;8.120;2023-08-08T20:41:59;22.40;99.90
16040;DHT22;8124;48.634;8.120;2023-08-08T20:47:03;22.30;99.90
16040;DHT22;8124;48.634;8.120;2023-08-08T20:52:07;22.20;99.90
16040;DHT22;8124;48.634;8.120;2023-08-08T20:57:11;22.20;99.90
16040;DHT22;8124;48.634;8.120;2023-08-08T21:02:14;22.20;99.90
16040;DHT22;8124;48.634;8.120;2023-08-08T21:07:20;22.20;99.90
16040;DHT22;8124;48.634;8.120;2023-08-08T21:12:24;22.10;99.90
16040;DHT22;8124;48.634;8.120;2023-08-08T21:17:27;22.10;99.90
16040;DHT22;8124;48.634;8.120;2023-08-08T21:22:30;22.10;99.90
16040;DHT22;8124;48.634;8.120;2023-08-08T21:27:35;22.00;99.90
16040;DHT22;8124;48.634;8.120;2023-08-08T21:32:37;22.00;99.90
16040;DHT22;8124;48.634;8.120;2023-08-08T21:37:40;22.00;99.90
16040;DHT22;8124;48.634;8.120;2023-08-08T21:42:45;22.00;99.90
16040;DHT22;8124;48.634;8.120;2023-08-08T21:47:48;22.10;99.90
16040;DHT22;8124;48.634;8.120;2023-08-08T21:52:51;22.00;99.90
16040;DHT22;8124;48.634;8.120;2023-08-08T21:57:55;21.90;99.90
16040;DHT22;8124;48.634;8.120;2023-08-08T22:02:58;21.90;99.90
16040;DHT22;8124;48.634;8.120;2023-08-08T22:08:02;21.80;99.90
16040;DHT22;8124;48.634;8.120;2023-08-08T22:13:06;21.70;99.90
16040;DHT22;8124;48.634;8.120;2023-08-08T22:18:12;21.60;99.90
16040;DHT22;8124;48.634;8.120;2023-08-08T22:23:15;21.50;99.90
16040;DHT22;8124;48.634;8.120;2023-08-08T22:28:23;21.50;99.90
16040;DHT22;8124;48.634;8.120;2023-08-08T22:33:26;21.50;99.90
16040;DHT22;8124;48.634;8.120;2023-08-08T22:38:29;21.50;99.90
16040;DHT22;8124;48.634;8.120;2023-08-08T22:43:33;21.50;99.90
16040;DHT22;8124;48.634;8.120;2023-08-08T22:48:36;21.60;99.90
16040;DHT22;8124;48.634;8.120;2023-08-08T22:53:39;21.50;99.90
16040;DHT22;8124;48.634;8.120;2023-08-08T22:58:45;21.60;99.90
16040;DHT22;8124;48.634;8.120;2023-08-08T23:03:48;21.50;99.90
16040;DHT22;8124;48.634;8.120;2023-08-08T23:08:52;21.50;99.90
16040;DHT22;8124;48.634;8.120;2023-08-08T23:13:56;21.40;99.90
16040;DHT22;8124;48.634;8.120;2023-08-08T23:18:59;21.30;99.90
16040;DHT22;8124;48.634;8.120;2023-08-08T23:24:02;21.20;99.90
16040;DHT22;8124;48.634;8.120;2023-08-08T23:29:07;21.00;99.90
16040;DHT22;8124;48.634;8.120;2023-08-08T23:34:10;21.00;99.90
16040;DHT22;8124;48.634;8.120;2023-08-08T23:39:13;21.10;99.90
16040;DHT22;8124;48.634;8.120;2023-08-08T23:44:19;21.00;99.90
16040;DHT22;8124;48.634;8.120;2023-08-08T23:49:22;20.90;99.90
16040;DHT22;8124;48.634;8.120;2023-08-08T23:54:25;20.90;99.90
16040;DHT22;8124;48.634;8.120;2023-08-08T23:59:29;20.70;99.90
